sensor_id;sensor_type;location;lat;lon;timestamp;P1;durP1;ratioP1;P2;durP2;ratioP2
54871;SDS011;43914;57.680;11.982;2023-02-26T00:02:08;3.80;;;1.10;;
54871;SDS011;43914;57.680;11.982;2023-02-26T00:04:35;7.10;;;1.20;;
54871;SDS011;43914;57.680;11.982;2023-02-26T00:07:01;4.70;;;1.10;;
54871;SDS011;43914;57.680;11.982;2023-02-26T00:09:29;5.40;;;1.20;;
54871;SDS011;43914;57.680;11.982;2023-02-26T00:11:55;5.10;;;1.30;;
54871;SDS011;43914;57.680;11.982;2023-02-26T00:14:22;3.70;;;1.00;;
54871;SDS011;43914;57.680;11.982;2023-02-26T00:16:57;4.40;;;1.10;;
54871;SDS011;43914;57.680;11.982;2023-02-26T00:19:47;3.30;;;1.00;;
54871;SDS011;43914;57.680;11.982;2023-02-26T00:22:13;5.50;;;1.10;;
54871;SDS011;43914;57.680;11.982;2023-02-26T00:24:39;4.70;;;1.00;;
54871;SDS011;43914;57.680;11.982;2023-02-26T00:27:04;4.20;;;1.00;;
54871;SDS011;43914;57.680;11.982;2023-02-26T00:29:30;3.80;;;1.00;;
54871;SDS011;43914;57.680;11.982;2023-02-26T00:31:55;2.30;;;0.70;;
54871;SDS011;43914;57.680;11.982;2023-02-26T00:34:21;4.30;;;1.00;;
54871;SDS011;43914;57.680;11.982;2023-02-26T00:39:58;4.60;;;1.10;;
54871;SDS011;43914;57.680;11.982;2023-02-26T00:42:25;4.30;;;1.00;;
54871;SDS011;43914;57.680;11.982;2023-02-26T00:44:51;6.70;;;1.40;;
54871;SDS011;43914;57.680;11.982;2023-02-26T00:47:34;6.90;;;1.20;;
54871;SDS011;43914;57.680;11.982;2023-02-26T00:55:24;4.20;;;1.10;;
54871;SDS011;43914;57.680;11.982;2023-02-26T00:57:49;4.40;;;0.90;;
54871;SDS011;43914;57.680;11.982;2023-02-26T01:00:15;5.20;;;1.10;;
54871;SDS011;43914;57.680;11.982;2023-02-26T01:02:42;3.50;;;1.00;;
54871;SDS011;43914;57.680;11.982;2023-02-26T01:05:08;4.80;;;1.10;;
54871;SDS011;43914;57.680;11.982;2023-02-26T01:10:30;3.20;;;0.90;;
54871;SDS011;43914;57.680;11.982;2023-02-26T01:12:56;3.50;;;1.00;;
54871;SDS011;43914;57.680;11.982;2023-02-26T01:15:22;4.20;;;1.00;;
54871;SDS011;43914;57.680;11.982;2023-02-26T01:20:24;4.40;;;1.10;;
54871;SDS011;43914;57.680;11.982;2023-02-26T01:23:05;4.10;;;1.10;;
54871;SDS011;43914;57.680;11.982;2023-02-26T01:25:43;4.90;;;1.20;;
54871;SDS011;43914;57.680;11.982;2023-02-26T01:28:15;6.00;;;1.20;;
54871;SDS011;43914;57.680;11.982;2023-02-26T01:30:41;5.40;;;1.20;;
54871;SDS011;43914;57.680;11.982;2023-02-26T01:33:09;7.80;;;1.30;;
54871;SDS011;43914;57.680;11.982;2023-02-26T01:35:52;5.80;;;1.30;;
54871;SDS011;43914;57.680;11.982;2023-02-26T01:41:25;4.50;;;1.00;;
54871;SDS011;43914;57.680;11.982;2023-02-26T01:43:59;5.00;;;1.00;;
54871;SDS011;43914;57.680;11.982;2023-02-26T01:49:40;4.00;;;1.10;;
54871;SDS011;43914;57.680;11.982;2023-02-26T01:52:56;2.90;;;0.90;;
54871;SDS011;43914;57.680;11.982;2023-02-26T01:55:11;4.80;;;1.00;;
54871;SDS011;43914;57.680;11.982;2023-02-26T01:57:38;5.50;;;1.00;;
54871;SDS011;43914;57.680;11.982;2023-02-26T02:00:04;5.20;;;1.00;;
54871;SDS011;43914;57.680;11.982;2023-02-26T02:02:32;7.10;;;1.50;;
54871;SDS011;43914;57.680;11.982;2023-02-26T02:04:58;3.10;;;1.00;;
54871;SDS011;43914;57.680;11.982;2023-02-26T02:07:29;5.20;;;1.10;;
54871;SDS011;43914;57.680;11.982;2023-02-26T02:09:54;3.90;;;0.90;;
54871;SDS011;43914;57.680;11.982;2023-02-26T02:15:10;3.50;;;0.90;;
54871;SDS011;43914;57.680;11.982;2023-02-26T02:33:11;5.10;;;1.50;;
54871;SDS011;43914;57.680;11.982;2023-02-26T02:35:52;6.70;;;1.20;;
54871;SDS011;43914;57.680;11.982;2023-02-26T02:38:34;4.50;;;1.20;;
54871;SDS011;43914;57.680;11.982;2023-02-26T02:41:10;4.70;;;1.00;;
54871;SDS011;43914;57.680;11.982;2023-02-26T02:43:41;3.30;;;1.20;;
54871;SDS011;43914;57.680;11.982;2023-02-26T02:46:20;4.70;;;1.20;;
54871;SDS011;43914;57.680;11.982;2023-02-26T02:48:53;3.20;;;1.00;;
54871;SDS011;43914;57.680;11.982;2023-02-26T02:51:41;3.80;;;0.90;;
54871;SDS011;43914;57.680;11.982;2023-02-26T02:54:12;4.10;;;1.10;;
54871;SDS011;43914;57.680;11.982;2023-02-26T02:59:21;5.30;;;1.10;;
54871;SDS011;43914;57.680;11.982;2023-02-26T03:02:06;4.80;;;1.00;;
54871;SDS011;43914;57.680;11.982;2023-02-26T03:04:52;4.10;;;1.10;;
54871;SDS011;43914;57.680;11.982;2023-02-26T03:07:18;5.80;;;1.20;;
54871;SDS011;43914;57.680;11.982;2023-02-26T03:09:43;4.00;;;1.10;;
54871;SDS011;43914;57.680;11.982;2023-02-26T03:12:10;4.90;;;1.20;;
54871;SDS011;43914;57.680;11.982;2023-02-26T03:14:35;4.10;;;1.10;;
54871;SDS011;43914;57.680;11.982;2023-02-26T03:23:00;3.40;;;0.90;;
54871;SDS011;43914;57.680;11.982;2023-02-26T03:25:45;8.20;;;1.20;;
54871;SDS011;43914;57.680;11.982;2023-02-26T03:28:22;2.70;;;0.90;;
54871;SDS011;43914;57.680;11.982;2023-02-26T03:34:06;5.00;;;1.00;;
54871;SDS011;43914;57.680;11.982;2023-02-26T03:36:36;6.20;;;1.10;;
54871;SDS011;43914;57.680;11.982;2023-02-26T03:45:10;3.20;;;1.00;;
54871;SDS011;43914;57.680;11.982;2023-02-26T03:47:41;5.00;;;1.00;;
54871;SDS011;43914;57.680;11.982;2023-02-26T03:50:31;4.70;;;1.10;;
54871;SDS011;43914;57.680;11.982;2023-02-26T03:53:02;4.60;;;1.00;;
54871;SDS011;43914;57.680;11.982;2023-02-26T03:55:34;3.70;;;0.90;;
54871;SDS011;43914;57.680;11.982;2023-02-26T03:58:05;3.60;;;1.00;;
54871;SDS011;43914;57.680;11.982;2023-02-26T04:00:32;4.00;;;1.00;;
54871;SDS011;43914;57.680;11.982;2023-02-26T04:05:46;4.60;;;0.90;;
54871;SDS011;43914;57.680;11.982;2023-02-26T04:08:14;6.20;;;1.20;;
54871;SDS011;43914;57.680;11.982;2023-02-26T04:11:26;6.00;;;1.50;;
54871;SDS011;43914;57.680;11.982;2023-02-26T04:13:35;5.50;;;1.00;;
54871;SDS011;43914;57.680;11.982;2023-02-26T04:16:01;6.90;;;1.20;;
54871;SDS011;43914;57.680;11.982;2023-02-26T04:18:27;5.70;;;1.20;;
54871;SDS011;43914;57.680;11.982;2023-02-26T04:20:52;3.60;;;1.00;;
54871;SDS011;43914;57.680;11.982;2023-02-26T04:23:18;6.40;;;1.10;;
54871;SDS011;43914;57.680;11.982;2023-02-26T04:25:44;4.80;;;1.10;;
54871;SDS011;43914;57.680;11.982;2023-02-26T04:28:10;5.10;;;1.10;;
54871;SDS011;43914;57.680;11.982;2023-02-26T04:30:36;3.50;;;0.90;;
54871;SDS011;43914;57.680;11.982;2023-02-26T04:33:02;5.30;;;1.20;;
54871;SDS011;43914;57.680;11.982;2023-02-26T04:35:28;3.80;;;1.00;;
54871;SDS011;43914;57.680;11.982;2023-02-26T04:37:53;3.80;;;1.00;;
54871;SDS011;43914;57.680;11.982;2023-02-26T04:40:18;3.40;;;0.90;;
54871;SDS011;43914;57.680;11.982;2023-02-26T04:42:44;5.20;;;1.10;;
54871;SDS011;43914;57.680;11.982;2023-02-26T04:45:10;3.80;;;1.10;;
54871;SDS011;43914;57.680;11.982;2023-02-26T04:47:35;3.90;;;1.00;;
54871;SDS011;43914;57.680;11.982;2023-02-26T04:50:01;2.90;;;0.90;;
54871;SDS011;43914;57.680;11.982;2023-02-26T04:52:27;4.60;;;1.10;;
54871;SDS011;43914;57.680;11.982;2023-02-26T04:54:53;5.90;;;1.20;;
54871;SDS011;43914;57.680;11.982;2023-02-26T04:57:18;6.00;;;1.10;;
54871;SDS011;43914;57.680;11.982;2023-02-26T04:59:44;3.30;;;1.00;;
54871;SDS011;43914;57.680;11.982;2023-02-26T05:02:10;5.00;;;1.20;;
54871;SDS011;43914;57.680;11.982;2023-02-26T05:04:35;3.60;;;1.00;;
54871;SDS011;43914;57.680;11.982;2023-02-26T05:07:01;4.60;;;1.10;;
54871;SDS011;43914;57.680;11.982;2023-02-26T05:09:26;4.70;;;1.10;;
54871;SDS011;43914;57.680;11.982;2023-02-26T05:11:52;2.30;;;0.80;;
54871;SDS011;43914;57.680;11.982;2023-02-26T05:14:17;5.50;;;1.00;;
54871;SDS011;43914;57.680;11.982;2023-02-26T05:16:43;3.90;;;0.90;;
54871;SDS011;43914;57.680;11.982;2023-02-26T05:19:09;6.20;;;1.20;;
54871;SDS011;43914;57.680;11.982;2023-02-26T05:21:34;5.70;;;1.20;;
54871;SDS011;43914;57.680;11.982;2023-02-26T05:24:00;5.20;;;1.00;;
54871;SDS011;43914;57.680;11.982;2023-02-26T05:26:25;5.30;;;1.20;;
54871;SDS011;43914;57.680;11.982;2023-02-26T05:28:51;4.40;;;1.00;;
54871;SDS011;43914;57.680;11.982;2023-02-26T05:31:17;3.90;;;0.90;;
54871;SDS011;43914;57.680;11.982;2023-02-26T05:33:42;5.30;;;1.10;;
54871;SDS011;43914;57.680;11.982;2023-02-26T05:36:08;4.50;;;0.80;;
54871;SDS011;43914;57.680;11.982;2023-02-26T05:38:34;4.50;;;1.00;;
54871;SDS011;43914;57.680;11.982;2023-02-26T05:40:59;6.40;;;1.10;;
54871;SDS011;43914;57.680;11.982;2023-02-26T05:43:26;4.70;;;0.90;;
54871;SDS011;43914;57.680;11.982;2023-02-26T05:45:52;5.50;;;1.00;;
54871;SDS011;43914;57.680;11.982;2023-02-26T05:48:19;5.40;;;1.00;;
54871;SDS011;43914;57.680;11.982;2023-02-26T05:50:47;4.10;;;1.10;;
54871;SDS011;43914;57.680;11.982;2023-02-26T05:53:13;4.70;;;1.10;;
54871;SDS011;43914;57.680;11.982;2023-02-26T05:55:39;5.20;;;1.00;;
54871;SDS011;43914;57.680;11.982;2023-02-26T05:58:04;4.90;;;1.10;;
54871;SDS011;43914;57.680;11.982;2023-02-26T06:00:30;3.10;;;1.20;;
54871;SDS011;43914;57.680;11.982;2023-02-26T06:02:56;4.50;;;1.10;;
54871;SDS011;43914;57.680;11.982;2023-02-26T06:05:21;4.60;;;1.10;;
54871;SDS011;43914;57.680;11.982;2023-02-26T06:07:47;3.50;;;0.90;;
54871;SDS011;43914;57.680;11.982;2023-02-26T06:10:12;2.70;;;0.90;;
54871;SDS011;43914;57.680;11.982;2023-02-26T06:12:38;5.70;;;1.10;;
54871;SDS011;43914;57.680;11.982;2023-02-26T06:15:04;4.70;;;1.00;;
54871;SDS011;43914;57.680;11.982;2023-02-26T06:17:32;4.40;;;0.90;;
54871;SDS011;43914;57.680;11.982;2023-02-26T06:19:59;6.20;;;1.00;;
54871;SDS011;43914;57.680;11.982;2023-02-26T06:22:24;3.30;;;1.00;;
54871;SDS011;43914;57.680;11.982;2023-02-26T06:24:50;4.80;;;0.90;;
54871;SDS011;43914;57.680;11.982;2023-02-26T06:27:16;4.50;;;1.10;;
54871;SDS011;43914;57.680;11.982;2023-02-26T06:29:42;4.30;;;1.00;;
54871;SDS011;43914;57.680;11.982;2023-02-26T06:32:08;5.30;;;1.10;;
54871;SDS011;43914;57.680;11.982;2023-02-26T06:34:33;5.20;;;1.00;;
54871;SDS011;43914;57.680;11.982;2023-02-26T06:36:59;5.00;;;1.10;;
54871;SDS011;43914;57.680;11.982;2023-02-26T06:39:24;4.00;;;1.00;;
54871;SDS011;43914;57.680;11.982;2023-02-26T06:41:50;4.60;;;1.00;;
54871;SDS011;43914;57.680;11.982;2023-02-26T06:44:15;5.10;;;1.20;;
54871;SDS011;43914;57.680;11.982;2023-02-26T06:46:41;6.70;;;1.30;;
54871;SDS011;43914;57.680;11.982;2023-02-26T06:49:07;6.70;;;1.40;;
54871;SDS011;43914;57.680;11.982;2023-02-26T06:51:33;5.10;;;1.30;;
54871;SDS011;43914;57.680;11.982;2023-02-26T06:54:00;6.40;;;1.20;;
54871;SDS011;43914;57.680;11.982;2023-02-26T06:56:26;4.80;;;1.00;;
54871;SDS011;43914;57.680;11.982;2023-02-26T06:58:51;3.50;;;0.90;;
54871;SDS011;43914;57.680;11.982;2023-02-26T07:01:17;3.90;;;1.10;;
54871;SDS011;43914;57.680;11.982;2023-02-26T07:03:43;4.90;;;0.90;;
54871;SDS011;43914;57.680;11.982;2023-02-26T07:06:09;5.20;;;1.00;;
54871;SDS011;43914;57.680;11.982;2023-02-26T07:08:36;4.40;;;1.10;;
54871;SDS011;43914;57.680;11.982;2023-02-26T07:11:02;4.00;;;1.10;;
54871;SDS011;43914;57.680;11.982;2023-02-26T07:13:28;3.90;;;1.00;;
54871;SDS011;43914;57.680;11.982;2023-02-26T07:15:54;5.80;;;1.20;;
54871;SDS011;43914;57.680;11.982;2023-02-26T07:18:19;5.00;;;1.10;;
54871;SDS011;43914;57.680;11.982;2023-02-26T07:20:47;3.60;;;0.90;;
54871;SDS011;43914;57.680;11.982;2023-02-26T07:23:14;3.80;;;1.00;;
54871;SDS011;43914;57.680;11.982;2023-02-26T07:25:39;6.70;;;1.20;;
54871;SDS011;43914;57.680;11.982;2023-02-26T07:28:05;6.20;;;1.40;;
54871;SDS011;43914;57.680;11.982;2023-02-26T07:30:31;4.60;;;1.10;;
54871;SDS011;43914;57.680;11.982;2023-02-26T07:32:57;5.00;;;1.30;;
54871;SDS011;43914;57.680;11.982;2023-02-26T07:35:23;5.10;;;1.10;;
54871;SDS011;43914;57.680;11.982;2023-02-26T07:37:48;4.70;;;1.10;;
54871;SDS011;43914;57.680;11.982;2023-02-26T07:40:14;5.00;;;1.20;;
54871;SDS011;43914;57.680;11.982;2023-02-26T07:42:39;5.40;;;1.20;;
54871;SDS011;43914;57.680;11.982;2023-02-26T07:45:06;4.00;;;1.20;;
54871;SDS011;43914;57.680;11.982;2023-02-26T07:47:32;6.20;;;1.10;;
54871;SDS011;43914;57.680;11.982;2023-02-26T07:49:58;5.10;;;1.10;;
54871;SDS011;43914;57.680;11.982;2023-02-26T07:52:24;4.80;;;0.90;;
54871;SDS011;43914;57.680;11.982;2023-02-26T07:54:50;5.70;;;1.40;;
54871;SDS011;43914;57.680;11.982;2023-02-26T07:57:15;4.80;;;1.00;;
54871;SDS011;43914;57.680;11.982;2023-02-26T07:59:41;3.50;;;0.90;;
54871;SDS011;43914;57.680;11.982;2023-02-26T08:02:07;4.10;;;1.00;;
54871;SDS011;43914;57.680;11.982;2023-02-26T08:04:34;5.10;;;1.30;;
54871;SDS011;43914;57.680;11.982;2023-02-26T08:07:00;5.00;;;1.20;;
54871;SDS011;43914;57.680;11.982;2023-02-26T08:09:26;4.80;;;1.00;;
54871;SDS011;43914;57.680;11.982;2023-02-26T08:11:52;6.70;;;1.20;;
54871;SDS011;43914;57.680;11.982;2023-02-26T08:14:17;4.60;;;1.20;;
54871;SDS011;43914;57.680;11.982;2023-02-26T08:16:43;5.60;;;1.10;;
54871;SDS011;43914;57.680;11.982;2023-02-26T08:19:08;4.80;;;1.00;;
54871;SDS011;43914;57.680;11.982;2023-02-26T08:21:34;2.80;;;0.90;;
54871;SDS011;43914;57.680;11.982;2023-02-26T08:24:01;6.50;;;1.10;;
54871;SDS011;43914;57.680;11.982;2023-02-26T08:26:26;5.50;;;1.00;;
54871;SDS011;43914;57.680;11.982;2023-02-26T08:28:52;3.50;;;0.90;;
54871;SDS011;43914;57.680;11.982;2023-02-26T08:31:18;6.50;;;1.30;;
54871;SDS011;43914;57.680;11.982;2023-02-26T08:33:44;3.50;;;1.00;;
54871;SDS011;43914;57.680;11.982;2023-02-26T08:36:10;3.30;;;0.90;;
54871;SDS011;43914;57.680;11.982;2023-02-26T08:38:37;2.40;;;0.90;;
54871;SDS011;43914;57.680;11.982;2023-02-26T08:41:03;5.90;;;1.00;;
54871;SDS011;43914;57.680;11.982;2023-02-26T08:43:29;4.90;;;1.10;;
54871;SDS011;43914;57.680;11.982;2023-02-26T08:45:55;4.90;;;1.10;;
54871;SDS011;43914;57.680;11.982;2023-02-26T08:48:22;4.30;;;1.10;;
54871;SDS011;43914;57.680;11.982;2023-02-26T08:50:48;4.60;;;1.00;;
54871;SDS011;43914;57.680;11.982;2023-02-26T08:53:14;5.10;;;1.10;;
54871;SDS011;43914;57.680;11.982;2023-02-26T08:55:40;6.40;;;1.20;;
54871;SDS011;43914;57.680;11.982;2023-02-26T08:58:08;5.30;;;1.00;;
54871;SDS011;43914;57.680;11.982;2023-02-26T09:00:33;3.80;;;0.90;;
54871;SDS011;43914;57.680;11.982;2023-02-26T09:02:59;6.20;;;1.20;;
54871;SDS011;43914;57.680;11.982;2023-02-26T09:05:24;6.80;;;1.30;;
54871;SDS011;43914;57.680;11.982;2023-02-26T09:07:50;4.60;;;1.10;;
54871;SDS011;43914;57.680;11.982;2023-02-26T09:10:15;7.10;;;1.10;;
54871;SDS011;43914;57.680;11.982;2023-02-26T09:12:42;3.90;;;1.00;;
54871;SDS011;43914;57.680;11.982;2023-02-26T09:15:08;6.30;;;1.10;;
54871;SDS011;43914;57.680;11.982;2023-02-26T09:17:36;3.80;;;0.90;;
54871;SDS011;43914;57.680;11.982;2023-02-26T09:20:02;2.90;;;0.90;;
54871;SDS011;43914;57.680;11.982;2023-02-26T09:22:29;5.60;;;1.10;;
54871;SDS011;43914;57.680;11.982;2023-02-26T09:24:54;3.90;;;1.00;;
54871;SDS011;43914;57.680;11.982;2023-02-26T09:27:20;3.90;;;1.20;;
54871;SDS011;43914;57.680;11.982;2023-02-26T09:29:46;5.90;;;1.00;;
54871;SDS011;43914;57.680;11.982;2023-02-26T09:32:11;3.10;;;0.80;;
54871;SDS011;43914;57.680;11.982;2023-02-26T09:34:37;4.80;;;1.00;;
54871;SDS011;43914;57.680;11.982;2023-02-26T09:37:07;5.30;;;1.10;;
54871;SDS011;43914;57.680;11.982;2023-02-26T09:39:34;6.30;;;1.30;;
54871;SDS011;43914;57.680;11.982;2023-02-26T09:44:53;5.00;;;1.10;;
54871;SDS011;43914;57.680;11.982;2023-02-26T09:50:08;3.50;;;0.70;;
54871;SDS011;43914;57.680;11.982;2023-02-26T09:53:03;4.60;;;0.90;;
54871;SDS011;43914;57.680;11.982;2023-02-26T09:55:43;6.00;;;1.10;;
54871;SDS011;43914;57.680;11.982;2023-02-26T09:58:20;3.40;;;1.00;;
54871;SDS011;43914;57.680;11.982;2023-02-26T10:00:58;6.80;;;1.00;;
54871;SDS011;43914;57.680;11.982;2023-02-26T10:17:32;4.20;;;0.90;;
54871;SDS011;43914;57.680;11.982;2023-02-26T10:20:22;5.00;;;1.00;;
54871;SDS011;43914;57.680;11.982;2023-02-26T10:23:25;3.60;;;1.00;;
54871;SDS011;43914;57.680;11.982;2023-02-26T10:26:21;9.30;;;1.40;;
54871;SDS011;43914;57.680;11.982;2023-02-26T10:28:56;4.00;;;0.90;;
54871;SDS011;43914;57.680;11.982;2023-02-26T10:43:17;3.60;;;0.90;;
54871;SDS011;43914;57.680;11.982;2023-02-26T10:51:42;4.70;;;0.90;;
54871;SDS011;43914;57.680;11.982;2023-02-26T10:54:14;7.10;;;1.20;;
54871;SDS011;43914;57.680;11.982;2023-02-26T10:56:43;4.60;;;0.90;;
54871;SDS011;43914;57.680;11.982;2023-02-26T10:59:09;2.50;;;0.80;;
54871;SDS011;43914;57.680;11.982;2023-02-26T11:01:35;5.40;;;1.10;;
54871;SDS011;43914;57.680;11.982;2023-02-26T11:04:05;4.90;;;1.10;;
54871;SDS011;43914;57.680;11.982;2023-02-26T11:06:44;4.60;;;1.00;;
54871;SDS011;43914;57.680;11.982;2023-02-26T11:09:28;6.60;;;1.00;;
54871;SDS011;43914;57.680;11.982;2023-02-26T11:14:49;5.10;;;0.90;;
54871;SDS011;43914;57.680;11.982;2023-02-26T11:17:16;4.60;;;1.40;;
54871;SDS011;43914;57.680;11.982;2023-02-26T11:19:51;5.50;;;1.00;;
54871;SDS011;43914;57.680;11.982;2023-02-26T11:22:30;6.10;;;1.20;;
54871;SDS011;43914;57.680;11.982;2023-02-26T11:25:00;5.20;;;0.80;;
54871;SDS011;43914;57.680;11.982;2023-02-26T11:27:36;5.60;;;1.00;;
54871;SDS011;43914;57.680;11.982;2023-02-26T11:30:04;3.60;;;0.70;;
54871;SDS011;43914;57.680;11.982;2023-02-26T11:32:39;4.00;;;1.00;;
54871;SDS011;43914;57.680;11.982;2023-02-26T11:35:07;5.70;;;0.90;;
54871;SDS011;43914;57.680;11.982;2023-02-26T11:37:40;6.50;;;1.30;;
54871;SDS011;43914;57.680;11.982;2023-02-26T11:40:23;6.90;;;1.20;;
54871;SDS011;43914;57.680;11.982;2023-02-26T11:43:07;7.80;;;1.10;;
54871;SDS011;43914;57.680;11.982;2023-02-26T11:45:41;4.30;;;0.90;;
54871;SDS011;43914;57.680;11.982;2023-02-26T11:48:12;5.60;;;1.20;;
54871;SDS011;43914;57.680;11.982;2023-02-26T11:50:44;3.90;;;1.00;;
54871;SDS011;43914;57.680;11.982;2023-02-26T11:53:16;6.60;;;1.20;;
54871;SDS011;43914;57.680;11.982;2023-02-26T11:56:03;5.40;;;0.90;;
54871;SDS011;43914;57.680;11.982;2023-02-26T11:58:39;8.60;;;1.10;;
54871;SDS011;43914;57.680;11.982;2023-02-26T12:01:08;6.70;;;1.20;;
54871;SDS011;43914;57.680;11.982;2023-02-26T12:03:37;8.70;;;1.30;;
54871;SDS011;43914;57.680;11.982;2023-02-26T12:06:13;5.10;;;1.00;;
54871;SDS011;43914;57.680;11.982;2023-02-26T12:08:41;6.40;;;1.10;;
54871;SDS011;43914;57.680;11.982;2023-02-26T12:14:12;6.80;;;1.10;;
54871;SDS011;43914;57.680;11.982;2023-02-26T12:25:21;4.20;;;0.80;;
54871;SDS011;43914;57.680;11.982;2023-02-26T12:39:16;2.40;;;0.80;;
54871;SDS011;43914;57.680;11.982;2023-02-26T12:47:35;4.50;;;1.00;;
54871;SDS011;43914;57.680;11.982;2023-02-26T12:52:53;4.20;;;0.80;;
54871;SDS011;43914;57.680;11.982;2023-02-26T13:17:52;4.60;;;0.90;;
54871;SDS011;43914;57.680;11.982;2023-02-26T13:20:27;9.20;;;0.90;;
54871;SDS011;43914;57.680;11.982;2023-02-26T13:23:03;4.20;;;0.80;;
54871;SDS011;43914;57.680;11.982;2023-02-26T13:28:23;5.10;;;1.10;;
54871;SDS011;43914;57.680;11.982;2023-02-26T13:34:22;5.40;;;1.00;;
54871;SDS011;43914;57.680;11.982;2023-02-26T13:36:50;8.50;;;1.20;;
54871;SDS011;43914;57.680;11.982;2023-02-26T13:39:38;5.10;;;1.30;;
54871;SDS011;43914;57.680;11.982;2023-02-26T13:47:50;4.60;;;0.80;;
54871;SDS011;43914;57.680;11.982;2023-02-26T13:50:26;6.60;;;1.10;;
54871;SDS011;43914;57.680;11.982;2023-02-26T13:53:03;5.60;;;0.90;;
54871;SDS011;43914;57.680;11.982;2023-02-26T13:55:54;5.50;;;1.00;;
54871;SDS011;43914;57.680;11.982;2023-02-26T13:58:39;7.80;;;1.10;;
54871;SDS011;43914;57.680;11.982;2023-02-26T14:01:17;4.70;;;1.00;;
54871;SDS011;43914;57.680;11.982;2023-02-26T14:04:06;5.50;;;1.30;;
54871;SDS011;43914;57.680;11.982;2023-02-26T14:11:55;5.50;;;1.10;;
54871;SDS011;43914;57.680;11.982;2023-02-26T14:14:39;6.80;;;1.30;;
54871;SDS011;43914;57.680;11.982;2023-02-26T14:22:21;6.90;;;1.30;;
54871;SDS011;43914;57.680;11.982;2023-02-26T14:25:05;5.90;;;1.00;;
54871;SDS011;43914;57.680;11.982;2023-02-26T14:27:42;8.40;;;1.40;;
54871;SDS011;43914;57.680;11.982;2023-02-26T14:32:46;6.70;;;1.10;;
54871;SDS011;43914;57.680;11.982;2023-02-26T14:35:18;5.10;;;1.10;;
54871;SDS011;43914;57.680;11.982;2023-02-26T14:37:55;4.60;;;1.00;;
54871;SDS011;43914;57.680;11.982;2023-02-26T14:40:24;8.60;;;1.20;;
54871;SDS011;43914;57.680;11.982;2023-02-26T14:42:54;5.70;;;1.30;;
54871;SDS011;43914;57.680;11.982;2023-02-26T14:47:51;7.00;;;1.30;;
54871;SDS011;43914;57.680;11.982;2023-02-26T14:50:18;4.90;;;1.20;;
54871;SDS011;43914;57.680;11.982;2023-02-26T14:58:09;7.60;;;1.40;;
54871;SDS011;43914;57.680;11.982;2023-02-26T15:06:50;4.70;;;1.00;;
54871;SDS011;43914;57.680;11.982;2023-02-26T15:15:32;4.20;;;0.90;;
54871;SDS011;43914;57.680;11.982;2023-02-26T15:23:31;6.70;;;1.20;;
54871;SDS011;43914;57.680;11.982;2023-02-26T15:26:03;6.50;;;1.80;;
54871;SDS011;43914;57.680;11.982;2023-02-26T15:31:02;6.30;;;1.30;;
54871;SDS011;43914;57.680;11.982;2023-02-26T15:33:30;7.70;;;1.40;;
54871;SDS011;43914;57.680;11.982;2023-02-26T15:35:57;7.80;;;1.40;;
54871;SDS011;43914;57.680;11.982;2023-02-26T15:38:24;5.50;;;1.20;;
54871;SDS011;43914;57.680;11.982;2023-02-26T15:40:51;8.10;;;1.50;;
54871;SDS011;43914;57.680;11.982;2023-02-26T15:43:25;6.60;;;1.30;;
54871;SDS011;43914;57.680;11.982;2023-02-26T15:45:55;7.30;;;1.50;;
54871;SDS011;43914;57.680;11.982;2023-02-26T15:48:29;4.10;;;1.00;;
54871;SDS011;43914;57.680;11.982;2023-02-26T15:50:59;5.50;;;1.20;;
54871;SDS011;43914;57.680;11.982;2023-02-26T15:53:28;7.30;;;1.20;;
54871;SDS011;43914;57.680;11.982;2023-02-26T15:55:57;7.00;;;1.30;;
54871;SDS011;43914;57.680;11.982;2023-02-26T15:58:33;6.20;;;1.20;;
54871;SDS011;43914;57.680;11.982;2023-02-26T16:01:15;5.50;;;1.20;;
54871;SDS011;43914;57.680;11.982;2023-02-26T16:03:42;4.90;;;1.30;;
54871;SDS011;43914;57.680;11.982;2023-02-26T16:06:23;7.60;;;1.60;;
54871;SDS011;43914;57.680;11.982;2023-02-26T16:08:54;7.90;;;1.50;;
54871;SDS011;43914;57.680;11.982;2023-02-26T16:11:19;6.50;;;1.30;;
54871;SDS011;43914;57.680;11.982;2023-02-26T16:13:47;8.10;;;1.40;;
54871;SDS011;43914;57.680;11.982;2023-02-26T16:16:26;8.50;;;1.50;;
54871;SDS011;43914;57.680;11.982;2023-02-26T16:18:58;6.30;;;1.30;;
54871;SDS011;43914;57.680;11.982;2023-02-26T16:21:32;7.00;;;1.20;;
54871;SDS011;43914;57.680;11.982;2023-02-26T16:24:00;7.20;;;1.30;;
54871;SDS011;43914;57.680;11.982;2023-02-26T16:26:32;5.60;;;1.30;;
54871;SDS011;43914;57.680;11.982;2023-02-26T16:29:06;6.80;;;1.20;;
54871;SDS011;43914;57.680;11.982;2023-02-26T16:31:38;5.30;;;1.30;;
54871;SDS011;43914;57.680;11.982;2023-02-26T16:37:43;6.80;;;1.30;;
54871;SDS011;43914;57.680;11.982;2023-02-26T16:45:58;8.20;;;1.70;;
54871;SDS011;43914;57.680;11.982;2023-02-26T16:48:27;6.70;;;1.60;;
54871;SDS011;43914;57.680;11.982;2023-02-26T16:51:04;8.10;;;1.50;;
54871;SDS011;43914;57.680;11.982;2023-02-26T16:53:35;7.40;;;1.20;;
54871;SDS011;43914;57.680;11.982;2023-02-26T16:56:09;6.70;;;1.40;;
54871;SDS011;43914;57.680;11.982;2023-02-26T16:58:41;6.40;;;1.40;;
54871;SDS011;43914;57.680;11.982;2023-02-26T17:01:11;7.60;;;1.70;;
54871;SDS011;43914;57.680;11.982;2023-02-26T17:03:40;8.60;;;1.60;;
54871;SDS011;43914;57.680;11.982;2023-02-26T17:06:09;10.90;;;1.90;;
54871;SDS011;43914;57.680;11.982;2023-02-26T17:11:18;7.60;;;2.00;;
54871;SDS011;43914;57.680;11.982;2023-02-26T17:13:44;7.50;;;1.80;;
54871;SDS011;43914;57.680;11.982;2023-02-26T17:16:27;8.40;;;1.50;;
54871;SDS011;43914;57.680;11.982;2023-02-26T17:18:53;8.50;;;1.60;;
54871;SDS011;43914;57.680;11.982;2023-02-26T17:21:18;7.10;;;1.50;;
54871;SDS011;43914;57.680;11.982;2023-02-26T17:23:44;7.10;;;1.80;;
54871;SDS011;43914;57.680;11.982;2023-02-26T17:26:10;6.70;;;1.90;;
54871;SDS011;43914;57.680;11.982;2023-02-26T17:28:38;6.90;;;2.00;;
54871;SDS011;43914;57.680;11.982;2023-02-26T17:31:06;7.90;;;1.60;;
54871;SDS011;43914;57.680;11.982;2023-02-26T17:33:32;7.50;;;1.80;;
54871;SDS011;43914;57.680;11.982;2023-02-26T17:35:59;10.30;;;2.00;;
54871;SDS011;43914;57.680;11.982;2023-02-26T17:38:27;8.50;;;1.70;;
54871;SDS011;43914;57.680;11.982;2023-02-26T17:40:52;10.30;;;2.00;;
54871;SDS011;43914;57.680;11.982;2023-02-26T17:43:20;9.20;;;1.70;;
54871;SDS011;43914;57.680;11.982;2023-02-26T17:45:46;6.60;;;1.90;;
54871;SDS011;43914;57.680;11.982;2023-02-26T17:48:12;9.20;;;2.00;;
54871;SDS011;43914;57.680;11.982;2023-02-26T17:50:41;10.50;;;2.20;;
54871;SDS011;43914;57.680;11.982;2023-02-26T17:53:08;8.10;;;1.90;;
54871;SDS011;43914;57.680;11.982;2023-02-26T17:55:35;8.80;;;1.90;;
54871;SDS011;43914;57.680;11.982;2023-02-26T17:58:03;6.10;;;1.40;;
54871;SDS011;43914;57.680;11.982;2023-02-26T18:00:30;7.80;;;1.70;;
54871;SDS011;43914;57.680;11.982;2023-02-26T18:02:58;8.50;;;1.60;;
54871;SDS011;43914;57.680;11.982;2023-02-26T18:05:24;7.80;;;1.80;;
54871;SDS011;43914;57.680;11.982;2023-02-26T18:07:52;10.80;;;1.70;;
54871;SDS011;43914;57.680;11.982;2023-02-26T18:10:21;7.70;;;1.70;;
54871;SDS011;43914;57.680;11.982;2023-02-26T18:12:48;6.90;;;1.90;;
54871;SDS011;43914;57.680;11.982;2023-02-26T18:15:14;6.80;;;1.70;;
54871;SDS011;43914;57.680;11.982;2023-02-26T18:17:41;7.40;;;1.80;;
54871;SDS011;43914;57.680;11.982;2023-02-26T18:20:10;8.50;;;1.80;;
54871;SDS011;43914;57.680;11.982;2023-02-26T18:22:48;5.80;;;1.90;;
54871;SDS011;43914;57.680;11.982;2023-02-26T18:25:15;9.50;;;2.20;;
54871;SDS011;43914;57.680;11.982;2023-02-26T18:27:41;6.50;;;1.90;;